Time;durP1;ratioP1;P1;durP2;ratioP2;P2;SDS_P1;SDS_P2;PMS_P1;PMS_P2;Temp;Humidity;BMP_temperature;BMP_pressure;BME280_temperature;BME280_humidity;BME280_pressure;Samples;Min_cycle;Max_cycle;Signal;HPM_P1;HPM_P2
2024/02/10 00:00:15;;;;;;;4.88;2.75;;;;;;;9.50;100.00;98497.97;5131455;27;20104;-40
2024/02/10 00:02:41;;;;;;;3.97;1.85;;;;;;;9.50;100.00;98501.47;5131180;27;20064;-39
2024/02/10 00:05:07;;;;;;;5.70;2.30;;;;;;;9.61;100.00;98510.28;5130312;27;20536;-39
2024/02/10 00:07:32;;;;;;;4.18;2.45;;;;;;;9.67;100.00;98521.88;5118750;27;20157;-40
2024/02/10 00:09:59;;;;;;;3.27;2.50;;;;;;;9.69;100.00;98514.28;5117105;28;20048;-40
2024/02/10 00:12:24;;;;;;;4.97;2.25;;;;;;;9.69;100.00;98512.38;5117308;28;20019;-39
2024/02/10 00:14:50;;;;;;;4.78;2.38;;;;;;;9.70;100.00;98515.91;5116634;28;20344;-39
2024/02/10 00:17:15;;;;;;;2.93;2.20;;;;;;;9.68;100.00;98510.78;5117244;28;20236;-40
2024/02/10 00:19:46;;;;;;;5.30;2.55;;;;;;;9.72;100.00;98513.75;5117167;28;20601;-40
2024/02/10 00:22:12;;;;;;;3.67;1.92;;;;;;;9.64;100.00;98498.94;5116276;28;20019;-40
2024/02/10 00:24:38;;;;;;;3.33;1.93;;;;;;;9.74;100.00;98517.75;5116275;28;20116;-40
2024/02/10 00:27:04;;;;;;;4.10;2.15;;;;;;;9.76;100.00;98520.16;5117263;28;20245;-39
2024/02/10 00:29:33;;;;;;;4.15;2.25;;;;;;;9.77;100.00;98521.78;5116463;28;20027;-40
2024/02/10 00:31:58;;;;;;;3.97;2.10;;;;;;;9.68;100.00;98512.69;5116415;28;20019;-39
2024/02/10 00:34:28;;;;;;;4.03;2.00;;;;;;;9.65;100.00;98505.94;5116490;28;20028;-40
2024/02/10 00:36:54;;;;;;;4.70;1.98;;;;;;;9.74;100.00;98516.94;5116636;28;20022;-39
2024/02/10 00:39:20;;;;;;;4.60;2.20;;;;;;;9.74;100.00;98515.06;5116220;28;20015;-40
2024/02/10 00:41:45;;;;;;;4.40;1.90;;;;;;;9.75;100.00;98513.16;5117059;28;20081;-40
2024/02/10 00:44:12;;;;;;;3.45;2.08;;;;;;;9.61;100.00;98498.69;5116155;28;20015;-39
2024/02/10 00:46:38;;;;;;;3.95;2.10;;;;;;;9.70;100.00;98508.59;5116278;28;20444;-39
2024/02/10 00:49:04;;;;;;;3.58;1.98;;;;;;;9.73;100.00;98523.44;5116044;28;20023;-39
2024/02/10 00:51:30;;;;;;;3.08;1.73;;;;;;;9.72;100.00;98519.13;5116626;28;20020;-39
2024/02/10 00:53:56;;;;;;;3.38;1.70;;;;;;;9.64;100.00;98506.22;5115971;27;20440;-40
2024/02/10 00:56:21;;;;;;;4.15;1.92;;;;;;;9.62;100.00;98508.41;5117094;28;20432;-40
2024/02/10 00:58:50;;;;;;;3.23;1.93;;;;;;;9.68;100.00;98518.09;5115901;28;20019;-39
2024/02/10 01:01:20;;;;;;;4.40;2.05;;;;;;;9.68;100.00;98509.97;5116093;27;20257;-39
2024/02/10 01:03:46;;;;;;;2.83;1.77;;;;;;;9.67;100.00;98511.88;5116283;28;20024;-40
2024/02/10 01:06:16;;;;;;;3.80;2.22;;;;;;;9.66;100.00;98517.53;5116077;28;20406;-39
2024/02/10 01:08:48;;;;;;;3.53;2.13;;;;;;;9.68;100.00;98520.78;5116512;27;20031;-40
2024/02/10 01:11:17;;;;;;;3.95;1.83;;;;;;;9.63;100.00;98505.44;5116462;28;20024;-40
2024/02/10 01:13:45;;;;;;;2.92;2.00;;;;;;;9.71;100.00;98520.19;5116081;28;20326;-40
2024/02/10 01:16:11;;;;;;;5.38;2.22;;;;;;;9.68;100.00;98524.28;5115456;28;20028;-39
2024/02/10 01:18:37;;;;;;;3.92;1.80;;;;;;;9.66;100.00;98521.06;5114688;28;20030;-39
2024/02/10 01:21:03;;;;;;;4.32;1.92;;;;;;;9.64;100.00;98515.13;5115501;28;20400;-39
2024/02/10 01:23:31;;;;;;;5.28;1.90;;;;;;;9.65;100.00;98510.53;5115695;28;20047;-39
2024/02/10 01:25:57;;;;;;;3.90;2.10;;;;;;;9.59;100.00;98506.28;5115261;28;20027;-39
2024/02/10 01:28:23;;;;;;;4.03;2.70;;;;;;;9.66;100.00;98523.78;5115882;28;20035;-39
2024/02/10 01:30:51;;;;;;;3.78;2.25;;;;;;;9.65;100.00;98519.44;5114901;28;20026;-39
2024/02/10 01:33:17;;;;;;;3.65;2.28;;;;;;;9.63;100.00;98531.59;5114958;28;20111;-39
2024/02/10 01:35:43;;;;;;;3.75;2.22;;;;;;;9.57;100.00;98516.56;5115590;28;20401;-39
2024/02/10 01:38:09;;;;;;;3.63;2.00;;;;;;;9.65;100.00;98527.53;5114939;28;20024;-39
2024/02/10 01:40:34;;;;;;;4.05;2.22;;;;;;;9.61;100.00;98517.56;5115596;28;20042;-39
2024/02/10 01:43:04;;;;;;;5.40;2.20;;;;;;;9.67;100.00;98533.47;5115578;28;20452;-40
2024/02/10 01:45:29;;;;;;;4.45;2.53;;;;;;;9.69;100.00;98531.28;5114914;28;20020;-40
2024/02/10 01:47:54;;;;;;;5.43;2.20;;;;;;;9.61;100.00;98506.78;5115546;28;20030;-40
2024/02/10 01:50:20;;;;;;;3.55;1.80;;;;;;;9.70;100.00;98524.78;5114804;28;20016;-39
2024/02/10 01:52:48;;;;;;;3.13;1.90;;;;;;;9.68;100.00;98526.19;5115117;28;20083;-39
2024/02/10 01:55:13;;;;;;;4.45;1.92;;;;;;;9.69;100.00;98523.19;5114786;28;20108;-39
2024/02/10 01:57:39;;;;;;;3.38;1.98;;;;;;;9.69;100.00;98528.59;5115303;28;20535;-39
2024/02/10 02:00:06;;;;;;;3.50;1.95;;;;;;;9.66;100.00;98520.25;5115508;28;20020;-40
2024/02/10 02:02:33;;;;;;;3.22;2.10;;;;;;;9.64;100.00;98525.13;5114988;28;20027;-39
2024/02/10 02:05:00;;;;;;;3.47;1.90;;;;;;;9.62;100.00;98524.59;5114840;28;20447;-40
2024/02/10 02:07:30;;;;;;;4.95;1.67;;;;;;;9.59;100.00;98512.47;5114898;28;20011;-39
2024/02/10 02:09:59;;;;;;;2.97;2.00;;;;;;;9.64;100.00;98527.81;5115061;28;20058;-39
2024/02/10 02:12:25;;;;;;;4.32;1.85;;;;;;;9.66;100.00;98517.53;5115036;28;20301;-39
2024/02/10 02:14:50;;;;;;;3.35;2.00;;;;;;;9.65;100.00;98521.34;5114411;28;20024;-39
2024/02/10 02:17:17;;;;;;;2.57;2.00;;;;;;;9.65;100.00;98515.94;5114694;28;20081;-39
2024/02/10 02:19:44;;;;;;;3.63;2.13;;;;;;;9.62;100.00;98519.22;5114867;28;20081;-39
2024/02/10 02:22:09;;;;;;;4.35;2.10;;;;;;;9.61;100.00;98526.47;5114319;28;20527;-39
2024/02/10 02:24:35;;;;;;;4.00;2.03;;;;;;;9.63;100.00;98520.81;5114582;28;20044;-39
2024/02/10 02:27:02;;;;;;;2.78;2.03;;;;;;;9.61;100.00;98514.88;5114522;28;20118;-40
2024/02/10 02:29:27;;;;;;;3.63;2.00;;;;;;;9.62;100.00;98522.72;5113660;28;20034;-39
2024/02/10 02:31:53;;;;;;;3.07;2.10;;;;;;;9.62;100.00;98528.09;5115121;28;20023;-39
2024/02/10 02:34:22;;;;;;;3.58;2.10;;;;;;;9.62;100.00;98514.63;5114548;28;20257;-39
2024/02/10 02:36:48;;;;;;;5.43;2.30;;;;;;;9.62;100.00;98519.22;5114124;28;20027;-39
2024/02/10 02:39:14;;;;;;;3.90;2.00;;;;;;;9.59;100.00;98508.97;5113854;28;20038;-39
2024/02/10 02:41:39;;;;;;;3.50;1.80;;;;;;;9.63;100.00;98508.13;5114069;28;20020;-39
2024/02/10 02:44:08;;;;;;;3.53;2.00;;;;;;;9.63;100.00;98507.31;5114071;28;20030;-39
2024/02/10 02:46:35;;;;;;;3.45;1.80;;;;;;;9.62;100.00;98509.22;5114312;28;20448;-39
2024/02/10 02:49:01;;;;;;;3.25;2.03;;;;;;;9.60;100.00;98508.69;5113934;28;20023;-39
2024/02/10 02:51:26;;;;;;;4.53;2.50;;;;;;;9.60;100.00;98499.78;5114744;28;20076;-40
2024/02/10 02:53:51;;;;;;;5.27;2.47;;;;;;;9.49;100.00;98493.66;5113596;28;20099;-39
2024/02/10 02:56:18;;;;;;;3.17;2.25;;;;;;;9.55;100.00;98501.44;5113633;28;20387;-40
2024/02/10 02:58:45;;;;;;;2.85;2.15;;;;;;;9.49;100.00;98501.75;5113871;28;20107;-40
2024/02/10 03:01:11;;;;;;;6.22;2.38;;;;;;;9.47;100.00;98496.66;5114178;28;20016;-39
2024/02/10 03:03:38;;;;;;;5.57;2.40;;;;;;;9.46;100.00;98507.69;5114152;28;20019;-39
2024/02/10 03:06:03;;;;;;;4.63;2.42;;;;;;;9.41;100.00;98500.44;5114181;28;20031;-39
2024/02/10 03:08:29;;;;;;;3.60;2.10;;;;;;;9.40;100.00;98506.13;5113665;28;20367;-40
2024/02/10 03:10:54;;;;;;;3.38;2.10;;;;;;;9.34;100.00;98510.75;5114046;28;20019;-39
2024/02/10 03:13:20;;;;;;;3.97;2.42;;;;;;;9.32;100.00;98510.25;5113987;28;20451;-39
2024/02/10 03:15:47;;;;;;;3.03;1.90;;;;;;;9.28;100.00;98509.19;5113712;28;20429;-39
2024/02/10 03:18:13;;;;;;;2.97;1.85;;;;;;;9.26;100.00;98506.75;5114246;28;20072;-39
2024/02/10 03:20:39;;;;;;;4.57;2.00;;;;;;;9.23;100.00;98506.53;5113298;28;20076;-39
2024/02/10 03:23:07;;;;;;;3.60;1.95;;;;;;;9.17;100.00;98496.81;5113767;28;20024;-39
2024/02/10 03:25:32;;;;;;;2.53;1.83;;;;;;;9.19;100.00;98506.25;5113587;28;20027;-39
2024/02/10 03:27:57;;;;;;;3.27;2.20;;;;;;;9.21;100.00;98508.66;5114179;28;20023;-39
2024/02/10 03:30:23;;;;;;;3.97;2.67;;;;;;;9.20;100.00;98509.75;5113579;28;20024;-40
2024/02/10 03:32:53;;;;;;;3.88;2.13;;;;;;;9.19;100.00;98511.66;5114133;28;20345;-39
2024/02/10 03:35:20;;;;;;;3.35;2.33;;;;;;;9.14;100.00;98497.41;5113715;28;20026;-39
2024/02/10 03:37:45;;;;;;;3.70;2.35;;;;;;;9.17;100.00;98502.22;5113809;28;20088;-39
2024/02/10 03:40:14;;;;;;;3.33;2.10;;;;;;;9.19;100.00;98502.75;5113308;28;20451;-39
2024/02/10 03:42:41;;;;;;;5.45;2.20;;;;;;;9.16;100.00;98509.50;5116697;28;20016;-39
2024/02/10 03:45:07;;;;;;;4.50;2.28;;;;;;;9.14;100.00;98506.28;5117280;28;20031;-39
2024/02/10 03:47:32;;;;;;;4.25;2.38;;;;;;;9.14;100.00;98509.00;5117886;28;20073;-39
2024/02/10 03:49:58;;;;;;;5.13;2.93;;;;;;;9.14;100.00;98508.19;5117543;28;20095;-39
2024/02/10 03:52:25;;;;;;;;;;;;;;;9.19;100.00;98510.84;5117883;28;20023;-39
2024/02/10 03:54:51;;;;;;;3.40;2.22;;;;;;;9.12;100.00;98513.03;5117060;28;20262;-39
2024/02/10 03:57:19;;;;;;;4.25;2.13;;;;;;;9.09;100.00;98509.00;5117210;28;20051;-39
2024/02/10 03:59:45;;;;;;;5.57;2.38;;;;;;;9.08;100.00;98511.97;5117018;28;20020;-39
2024/02/10 04:02:10;;;;;;;3.22;2.15;;;;;;;9.07;100.00;98504.97;5117108;28;20073;-39
2024/02/10 04:04:36;;;;;;;7.57;2.40;;;;;;;9.06;100.00;98506.06;5116740;27;20063;-39
2024/02/10 04:07:02;;;;;;;5.50;2.55;;;;;;;9.06;100.00;98495.28;5116965;28;20341;-39
2024/02/10 04:09:27;;;;;;;2.45;2.08;;;;;;;9.06;100.00;98500.66;5116608;27;20055;-39
2024/02/10 04:11:55;;;;;;;3.72;2.08;;;;;;;8.97;100.00;98487.75;5117151;28;20069;-39
2024/02/10 04:14:22;;;;;;;4.80;2.60;;;;;;;9.01;100.00;98496.09;5116669;28;20030;-39
2024/02/10 04:16:52;;;;;;;3.70;2.30;;;;;;;9.03;100.00;98497.47;5116982;28;20110;-39
2024/02/10 04:19:18;;;;;;;3.42;2.33;;;;;;;8.95;100.00;98487.25;5117445;28;20336;-39
2024/02/10 04:21:46;;;;;;;3.45;2.25;;;;;;;9.03;100.00;98504.75;5116926;28;20016;-39
2024/02/10 04:24:14;;;;;;;7.32;3.50;;;;;;;9.03;100.00;98497.47;5116213;28;20023;-39
2024/02/10 04:26:40;;;;;;;4.97;3.10;;;;;;;9.01;100.00;98498.81;5117111;28;20020;-39
2024/02/10 04:29:06;;;;;;;3.72;2.83;;;;;;;9.01;100.00;98498.81;5116466;27;20068;-39
2024/02/10 04:31:31;;;;;;;4.18;2.65;;;;;;;9.01;100.00;98504.19;5116998;28;20428;-39
2024/02/10 04:33:56;;;;;;;4.07;2.90;;;;;;;9.03;100.00;98504.75;5116684;28;20015;-39
2024/02/10 04:36:22;;;;;;;4.53;2.47;;;;;;;9.00;100.00;98506.09;5116280;28;20360;-39
2024/02/10 04:38:48;;;;;;;3.58;2.58;;;;;;;8.95;100.00;98500.72;5116286;28;20019;-39
2024/02/10 04:41:13;;;;;;;4.10;2.87;;;;;;;9.01;100.00;98518.47;5116487;28;20020;-39
2024/02/10 04:43:38;;;;;;;3.43;2.50;;;;;;;9.05;100.00;98509.84;5116151;28;20030;-39
2024/02/10 04:46:04;;;;;;;4.57;2.43;;;;;;;9.01;100.00;98512.28;5115854;28;20055;-39
2024/02/10 04:48:30;;;;;;;5.07;3.45;;;;;;;8.88;100.00;98486.75;5116032;28;20023;-39
2024/02/10 04:50:56;;;;;;;5.85;2.85;;;;;;;9.03;100.00;98516.34;5116396;28;20098;-39
2024/02/10 04:53:25;;;;;;;4.00;3.10;;;;;;;8.98;100.00;98508.28;5116718;28;20020;-39
2024/02/10 04:55:50;;;;;;;4.10;3.42;;;;;;;9.00;100.00;98514.19;5115734;28;20044;-39
2024/02/10 04:58:16;;;;;;;4.10;2.97;;;;;;;9.01;100.00;98514.97;5116564;28;20364;-39
2024/02/10 05:00:41;;;;;;;3.67;2.70;;;;;;;9.01;100.00;98515.78;5115871;28;20015;-39
2024/02/10 05:03:06;;;;;;;6.32;3.22;;;;;;;9.00;100.00;98516.88;5115866;28;20023;-39
2024/02/10 05:05:32;;;;;;;5.37;2.93;;;;;;;9.01;100.00;98521.19;5115914;28;20031;-40
2024/02/10 05:07:58;;;;;;;3.85;2.92;;;;;;;9.01;100.00;98515.78;5116031;28;20019;-39
2024/02/10 05:10:24;;;;;;;3.33;2.80;;;;;;;9.01;100.00;98518.47;5115718;28;20149;-39
2024/02/10 05:12:50;;;;;;;;;;;;;;;9.08;100.00;98511.97;5116686;28;20019;-39
2024/02/10 05:15:18;;;;;;;9.35;4.05;;;;;;;8.98;100.00;98516.34;5115544;28;19911;-39
2024/02/10 05:17:49;;;;;;;6.32;3.08;;;;;;;8.96;100.00;98518.50;5116141;28;20019;-39
2024/02/10 05:20:21;;;;;;;4.47;2.63;;;;;;;8.99;100.00;98522.56;5115540;28;20030;-39
2024/02/10 05:22:51;;;;;;;3.70;2.88;;;;;;;8.97;100.00;98530.09;5115039;28;20427;-39
2024/02/10 05:25:21;;;;;;;4.63;3.15;;;;;;;8.97;100.00;98528.19;5115425;28;20055;-39
2024/02/10 05:27:47;;;;;;;6.10;2.70;;;;;;;8.99;100.00;98526.06;5115633;28;20520;-39
2024/02/10 05:30:24;;;;;;;4.88;2.60;;;;;;;8.99;100.00;98533.34;5115095;28;20035;-39
2024/02/10 05:32:56;;;;;;;5.78;2.78;;;;;;;8.97;100.00;98530.91;5115326;27;20027;-39
2024/02/10 05:35:22;;;;;;;3.85;2.70;;;;;;;8.89;100.00;98528.78;5115137;28;20409;-39
2024/02/10 05:37:56;;;;;;;3.45;2.65;;;;;;;8.99;100.00;98538.72;5115494;28;20023;-39
2024/02/10 05:40:22;;;;;;;5.43;2.47;;;;;;;8.97;100.00;98535.47;5115131;28;20026;-39
2024/02/10 05:42:50;;;;;;;5.65;2.95;;;;;;;8.91;100.00;98531.19;5115051;28;20442;-40
2024/02/10 05:45:18;;;;;;;4.28;2.78;;;;;;;8.88;100.00;98520.97;5115284;28;20111;-39
2024/02/10 05:47:50;;;;;;;3.67;2.92;;;;;;;8.90;100.00;98532.28;5115236;28;20110;-39
2024/02/10 05:50:18;;;;;;;4.18;2.80;;;;;;;8.87;100.00;98527.44;5114919;28;20020;-39
2024/02/10 05:52:46;;;;;;;5.68;3.15;;;;;;;8.87;100.00;98533.63;5115455;28;20333;-39
2024/02/10 05:55:20;;;;;;;4.47;2.95;;;;;;;8.86;100.00;98532.03;5114656;28;20081;-39
2024/02/10 05:57:49;;;;;;;5.60;3.10;;;;;;;8.87;100.00;98536.34;5115021;28;20486;-39
2024/02/10 06:00:15;;;;;;;5.57;2.85;;;;;;;8.89;100.00;98539.56;5114684;28;20055;-39
2024/02/10 06:02:41;;;;;;;4.63;2.92;;;;;;;8.87;100.00;98546.31;5114976;28;20482;-39
2024/02/10 06:05:13;;;;;;;5.97;3.47;;;;;;;8.87;100.00;98544.41;5113848;28;20024;-39
2024/02/10 06:07:41;;;;;;;5.68;3.25;;;;;;;8.79;100.00;98539.63;5115171;28;20143;-39
2024/02/10 06:10:09;;;;;;;3.88;2.88;;;;;;;8.86;100.00;98544.69;5114472;28;20444;-39
2024/02/10 06:12:55;;;;;;;4.63;3.33;;;;;;;8.88;100.00;98547.91;5114848;28;20114;-39
2024/02/10 06:15:23;;;;;;;5.38;2.78;;;;;;;8.85;100.00;98554.69;5114156;28;20028;-40
2024/02/10 06:17:54;;;;;;;5.10;2.80;;;;;;;8.80;100.00;98543.91;5114436;28;20028;-39
2024/02/10 06:20:23;;;;;;;4.75;3.40;;;;;;;8.81;100.00;98550.91;5114973;28;20019;-40
2024/02/10 06:22:53;;;;;;;3.25;2.83;;;;;;;8.79;100.00;98558.47;5114335;28;20020;-40
2024/02/10 06:25:25;;;;;;;5.28;2.90;;;;;;;8.79;100.00;98558.47;5115022;28;20423;-40
2024/02/10 06:27:54;;;;;;;5.25;3.28;;;;;;;8.81;100.00;98560.88;5114841;28;20055;-39
2024/02/10 06:30:21;;;;;;;4.88;2.70;;;;;;;8.77;100.00;98563.31;5114420;28;20440;-39
2024/02/10 06:32:47;;;;;;;7.32;3.72;;;;;;;8.77;100.00;98571.41;5114180;28;20024;-39
2024/02/10 06:35:13;;;;;;;5.50;3.30;;;;;;;8.79;100.00;98576.53;5114081;28;20092;-39
2024/02/10 06:37:42;;;;;;;5.35;3.05;;;;;;;8.79;100.00;98576.53;5114171;28;20030;-39
2024/02/10 06:40:09;;;;;;;5.00;3.20;;;;;;;8.77;100.00;98574.91;5114327;28;20028;-39
2024/02/10 06:42:35;;;;;;;4.43;3.40;;;;;;;8.67;100.00;98558.75;5114615;28;20016;-39
2024/02/10 06:45:20;;;;;;;5.00;3.10;;;;;;;8.77;100.00;98579.47;5113955;28;20028;-39
2024/02/10 06:47:46;;;;;;;4.25;3.20;;;;;;;8.75;100.00;98581.66;5113729;28;20055;-39
2024/02/10 06:50:23;;;;;;;6.13;3.00;;;;;;;8.76;100.00;98588.66;5113973;28;20022;-39
2024/02/10 06:52:48;;;;;;;4.00;3.00;;;;;;;8.76;100.00;98591.34;5113935;28;20110;-39
2024/02/10 06:55:14;;;;;;;5.20;3.07;;;;;;;8.77;100.00;98591.06;5114001;28;20123;-40
2024/02/10 06:57:43;;;;;;;4.53;2.80;;;;;;;8.73;100.00;98590.00;5113958;28;20020;-39
2024/02/10 07:00:10;;;;;;;3.78;2.90;;;;;;;8.71;100.00;98592.16;5113620;28;20340;-39
2024/02/10 07:02:38;;;;;;;4.70;2.90;;;;;;;8.74;100.00;98604.31;5113576;28;20061;-39
2024/02/10 07:05:05;;;;;;;8.25;3.30;;;;;;;8.76;100.00;98610.22;5113824;28;20027;-39
2024/02/10 07:07:31;;;;;;;5.05;3.40;;;;;;;8.75;100.00;98605.91;5114063;28;20088;-39
2024/02/10 07:09:59;;;;;;;4.60;3.03;;;;;;;8.76;100.00;98607.53;5113772;28;20024;-39
2024/02/10 07:12:26;;;;;;;4.90;3.50;;;;;;;8.76;100.00;98615.59;5114014;28;20356;-39
2024/02/10 07:14:52;;;;;;;4.85;3.10;;;;;;;8.64;100.00;98590.84;5114465;28;20023;-39
2024/02/10 07:17:18;;;;;;;4.28;2.88;;;;;;;8.77;100.00;98615.31;5117044;28;20110;-39
2024/02/10 07:19:47;;;;;;;6.55;3.42;;;;;;;8.67;100.00;98595.69;5117965;27;20424;-39
2024/02/10 07:22:12;;;;;;;3.83;3.28;;;;;;;8.74;100.00;98610.50;5118127;28;20110;-39
2024/02/10 07:24:38;;;;;;;4.63;2.78;;;;;;;8.74;100.00;98610.50;5117747;28;20464;-39
2024/02/10 07:27:06;;;;;;;5.15;3.63;;;;;;;8.77;100.00;98618.03;5118590;27;20026;-39
2024/02/10 07:29:34;;;;;;;4.63;3.38;;;;;;;8.74;100.00;98613.19;5118206;28;20030;-40
2024/02/10 07:32:00;;;;;;;4.75;3.38;;;;;;;8.76;100.00;98615.59;5117649;28;20027;-40
2024/02/10 07:34:26;;;;;;;7.17;3.97;;;;;;;8.70;100.00;98601.34;5117517;28;20035;-39
2024/02/10 07:36:55;;;;;;;5.18;3.75;;;;;;;8.78;100.00;98618.81;5117799;28;20344;-39
2024/02/10 07:39:24;;;;;;;4.20;3.45;;;;;;;8.79;100.00;98614.25;5117459;27;20026;-39
2024/02/10 07:41:50;;;;;;;4.70;3.30;;;;;;;8.79;100.00;98619.66;5117404;27;20058;-39
2024/02/10 07:44:15;;;;;;;6.47;4.50;;;;;;;8.73;100.00;98613.44;5117436;28;20043;-39
2024/02/10 07:46:40;;;;;;;5.87;3.90;;;;;;;8.79;100.00;98628.53;5117369;28;20078;-39
2024/02/10 07:49:06;;;;;;;6.85;4.10;;;;;;;8.70;100.00;98622.91;5116046;28;20281;-39
2024/02/10 07:51:34;;;;;;;5.40;3.90;;;;;;;8.77;100.00;98636.06;5117297;28;20062;-39
2024/02/10 07:54:00;;;;;;;6.85;4.28;;;;;;;8.79;100.00;98636.63;5117672;28;20265;-39
2024/02/10 07:56:29;;;;;;;5.22;3.42;;;;;;;8.83;100.00;98637.69;5117004;28;20502;-39
2024/02/10 07:58:58;;;;;;;4.88;3.50;;;;;;;8.83;100.00;98643.06;5117069;28;20023;-39
2024/02/10 08:01:25;;;;;;;7.00;3.83;;;;;;;8.85;100.00;98646.31;5117353;28;20023;-40
2024/02/10 08:03:54;;;;;;;4.88;3.50;;;;;;;8.84;100.00;98644.69;5116677;28;20023;-39
2024/02/10 08:06:32;;;;;;;4.78;3.60;;;;;;;8.86;100.00;98642.53;5116938;28;20028;-39
2024/02/10 08:09:00;;;;;;;4.00;3.38;;;;;;;8.90;100.00;98645.50;5117163;28;20103;-39
2024/02/10 08:11:29;;;;;;;5.18;3.38;;;;;;;8.88;100.00;98643.09;5117689;28;20023;-39
2024/02/10 08:13:56;;;;;;;5.65;3.47;;;;;;;8.92;100.00;98654.91;5116797;28;20110;-39
2024/02/10 08:16:25;;;;;;;4.00;3.17;;;;;;;8.92;100.00;98651.41;5117499;28;20073;-39
2024/02/10 08:18:51;;;;;;;5.78;3.42;;;;;;;8.93;100.00;98648.47;5116394;28;20023;-39
2024/02/10 08:21:19;;;;;;;3.78;3.20;;;;;;;8.95;100.00;98659.75;5117198;28;20041;-39
2024/02/10 08:23:46;;;;;;;5.40;3.42;;;;;;;8.98;100.00;98661.13;5116595;28;20027;-39
2024/02/10 08:26:12;;;;;;;6.30;3.50;;;;;;;8.99;100.00;98654.63;5116510;28;20468;-39
2024/02/10 08:28:39;;;;;;;4.80;3.03;;;;;;;9.03;100.00;98658.41;5115983;28;20028;-39
2024/02/10 08:31:04;;;;;;;5.15;3.35;;;;;;;9.03;100.00;98656.50;5116395;28;20054;-39
2024/02/10 08:33:33;;;;;;;4.82;3.20;;;;;;;9.09;100.00;98664.59;5116664;28;20066;-39
2024/02/10 08:35:59;;;;;;;4.03;2.92;;;;;;;9.10;100.00;98658.09;5115993;28;20043;-39
2024/02/10 08:38:27;;;;;;;3.78;3.10;;;;;;;9.11;100.00;98662.41;5116387;28;20024;-40
2024/02/10 08:40:53;;;;;;;5.30;3.05;;;;;;;9.15;100.00;98660.78;5116181;28;20023;-39
2024/02/10 08:43:18;;;;;;;3.65;3.10;;;;;;;9.16;100.00;98657.81;5116172;28;20026;-39
2024/02/10 08:45:44;;;;;;;4.55;2.90;;;;;;;9.15;100.00;98650.00;5116732;28;20028;-39
2024/02/10 08:48:10;;;;;;;4.07;2.80;;;;;;;9.26;100.00;98667.75;5116057;28;20028;-39
2024/02/10 08:50:40;;;;;;;3.03;2.67;;;;;;;9.28;100.00;98668.31;5116037;28;20058;-39
2024/02/10 08:53:06;;;;;;;4.90;3.20;;;;;;;9.29;100.00;98670.72;5116287;28;20028;-39
2024/02/10 08:55:31;;;;;;;3.30;2.45;;;;;;;9.31;100.00;98667.72;5115932;28;20112;-39
2024/02/10 08:58:01;;;;;;;3.67;2.85;;;;;;;9.29;100.00;98669.91;5115717;28;20532;-39
2024/02/10 09:00:27;;;;;;;3.47;2.72;;;;;;;9.29;100.00;98661.81;5115827;28;20049;-39
2024/02/10 09:02:53;;;;;;;3.72;3.05;;;;;;;9.37;100.00;98672.03;5116176;28;20019;-39
2024/02/10 09:05:18;;;;;;;;;;;;;;;9.47;100.00;98679.28;5116169;28;20088;-39
2024/02/10 09:07:44;;;;;;;5.65;2.90;;;;;;;9.36;100.00;98667.72;5116125;28;19907;-39
2024/02/10 09:10:10;;;;;;;4.33;2.80;;;;;;;9.46;100.00;98683.06;5115970;28;20020;-39
2024/02/10 09:12:35;;;;;;;6.70;3.60;;;;;;;9.50;100.00;98684.13;5115892;28;20259;-39
2024/02/10 09:15:00;;;;;;;7.13;3.88;;;;;;;9.51;100.00;98678.44;5115481;28;20024;-39
2024/02/10 09:17:26;;;;;;;2.90;2.60;;;;;;;9.54;100.00;98680.59;5116620;28;20024;-40
2024/02/10 09:19:51;;;;;;;3.10;2.67;;;;;;;9.60;100.00;98684.06;5115465;28;20019;-39
2024/02/10 09:22:17;;;;;;;3.30;2.67;;;;;;;9.62;100.00;98681.91;5115740;28;20077;-40
2024/02/10 09:24:42;;;;;;;4.18;3.10;;;;;;;9.65;100.00;98688.63;5115457;28;20019;-39
2024/02/10 09:27:10;;;;;;;5.30;3.33;;;;;;;9.69;100.00;98677.00;5115761;28;20102;-40
2024/02/10 09:29:36;;;;;;;4.78;3.25;;;;;;;9.74;100.00;98681.56;5115498;28;20046;-40
2024/02/10 09:32:01;;;;;;;5.50;3.33;;;;;;;9.76;100.00;98676.69;5115089;28;20023;-39
2024/02/10 09:34:27;;;;;;;5.43;3.47;;;;;;;9.78;100.00;98674.53;5115632;28;20448;-40
2024/02/10 09:36:53;;;;;;;5.18;3.28;;;;;;;9.80;100.00;98675.88;5115465;28;20411;-40
2024/02/10 09:39:20;;;;;;;3.55;3.15;;;;;;;9.82;100.00;98675.59;5114205;28;20390;-40
2024/02/10 09:41:47;;;;;;;4.22;3.60;;;;;;;9.82;100.00;98675.59;5114981;28;20149;-39
2024/02/10 09:44:16;;;;;;;4.22;3.00;;;;;;;9.91;100.00;98683.94;5114961;28;20024;-39
2024/02/10 09:46:42;;;;;;;4.38;2.50;;;;;;;9.95;100.00;98691.16;5115450;28;20035;-40
2024/02/10 09:49:09;;;;;;;4.10;2.60;;;;;;;9.97;100.00;98686.31;5114888;28;20443;-40
2024/02/10 09:51:42;;;;;;;2.88;2.47;;;;;;;9.98;100.00;98682.53;5115132;28;20118;-40
2024/02/10 09:54:09;;;;;;;5.60;2.72;;;;;;;10.01;100.00;98689.28;5115034;28;20023;-40
2024/02/10 09:56:35;;;;;;;4.10;2.63;;;;;;;10.07;100.00;98685.44;5115166;28;20048;-40
2024/02/10 09:59:02;;;;;;;5.53;3.00;;;;;;;10.10;100.00;98686.75;5115238;28;20047;-40
2024/02/10 10:01:36;;;;;;;3.65;2.50;;;;;;;10.05;100.00;98674.94;5114938;28;20102;-40
2024/02/10 10:04:01;;;;;;;3.67;2.60;;;;;;;10.17;100.00;98688.06;5115421;28;20024;-39
2024/02/10 10:06:27;;;;;;;4.33;2.67;;;;;;;10.07;100.00;98678.16;5114761;28;20466;-40
2024/02/10 10:08:53;;;;;;;;;;;;;;;10.31;100.00;98697.19;5115831;28;20068;-39
2024/02/10 10:11:20;;;;;;;4.72;2.67;;;;;;;10.28;100.00;98686.13;5115073;28;20297;-40
2024/02/10 10:13:46;;;;;;;3.72;2.70;;;;;;;10.31;100.00;98685.59;5114304;28;20360;-40
2024/02/10 10:16:12;;;;;;;3.35;2.63;;;;;;;10.35;100.00;98689.34;5114634;28;20115;-40
2024/02/10 10:18:37;;;;;;;3.72;2.50;;;;;;;10.38;100.00;98682.56;5114361;28;20024;-40
2024/02/10 10:21:10;;;;;;;3.53;2.30;;;;;;;10.42;100.00;98692.50;5115170;28;20027;-40
2024/02/10 10:23:36;;;;;;;3.95;2.20;;;;;;;10.47;100.00;98687.06;5114270;28;20367;-39
2024/02/10 10:26:03;;;;;;;4.18;2.40;;;;;;;10.53;100.00;98696.75;5113928;28;20023;-39
2024/02/10 10:28:30;;;;;;;3.90;2.67;;;;;;;10.55;100.00;98699.19;5114941;28;20019;-39
2024/02/10 10:30:57;;;;;;;4.50;2.63;;;;;;;10.58;100.00;98702.09;5114052;28;20462;-39
2024/02/10 10:33:25;;;;;;;3.42;2.28;;;;;;;10.54;100.00;98686.72;5114932;28;20113;-40
2024/02/10 10:35:52;;;;;;;2.90;2.53;;;;;;;10.63;100.00;98703.16;5114712;28;20012;-39
2024/02/10 10:38:21;;;;;;;3.38;1.90;;;;;;;10.69;100.00;98699.34;5114893;28;20340;-39
2024/02/10 10:40:48;;;;;;;3.47;2.67;;;;;;;10.71;100.00;98697.16;5113958;28;20055;-39
2024/02/10 10:43:17;;;;;;;4.10;2.63;;;;;;;10.74;100.00;98692.00;5113994;28;20446;-39
2024/02/10 10:45:42;;;;;;;3.83;2.42;;;;;;;10.77;100.00;98686.00;5114723;28;20057;-39
2024/02/10 10:48:08;;;;;;;3.88;2.60;;;;;;;10.81;100.00;98688.94;5114071;28;20459;-40
2024/02/10 10:50:34;;;;;;;3.67;2.90;;;;;;;10.81;100.00;98684.34;5114342;28;20420;-40
2024/02/10 10:53:06;;;;;;;3.60;2.47;;;;;;;10.77;100.00;98672.47;5114189;28;20250;-39
2024/02/10 10:55:43;;;;;;;3.75;2.60;;;;;;;10.90;100.00;98687.22;5113954;28;20051;-40
2024/02/10 10:58:12;;;;;;;3.30;2.58;;;;;;;10.90;100.00;98678.31;5114169;28;20054;-40
2024/02/10 11:00:41;;;;;;;6.60;2.83;;;;;;;11.00;100.00;98697.16;5113831;28;20036;-39
2024/02/10 11:03:07;;;;;;;4.30;3.30;;;;;;;11.02;100.00;98690.34;5114361;28;20020;-40
2024/02/10 11:05:38;;;;;;;5.05;3.90;;;;;;;11.05;100.00;98689.78;5113867;28;20019;-40
2024/02/10 11:08:06;;;;;;;3.72;3.17;;;;;;;11.09;100.00;98688.13;5114062;28;20394;-40
2024/02/10 11:10:39;;;;;;;3.10;2.33;;;;;;;11.04;100.00;98674.66;5113691;28;20031;-40
2024/02/10 11:13:06;;;;;;;5.35;2.25;;;;;;;11.13;100.00;98680.25;5114635;28;20036;-40
2024/02/10 11:15:32;;;;;;;5.43;2.95;;;;;;;11.22;100.00;98677.69;5113711;28;20024;-39
2024/02/10 11:18:01;;;;;;;2.80;2.08;;;;;;;11.28;100.00;98674.66;5114157;28;20106;-39
2024/02/10 11:20:38;;;;;;;2.55;2.10;;;;;;;11.34;100.00;98670.78;5113562;28;20452;-39
2024/02/10 11:23:11;;;;;;;4.25;2.15;;;;;;;11.37;100.00;98674.84;5113679;28;20152;-40
2024/02/10 11:25:39;;;;;;;3.03;2.10;;;;;;;11.43;100.00;98668.25;5113574;28;20367;-40
2024/02/10 11:28:05;;;;;;;13.15;11.77;;;;;;;11.47;100.00;98668.50;5113919;28;20105;-39
2024/02/10 11:30:31;;;;;;;16.33;14.95;;;;;;;11.43;100.00;98656.63;5113545;28;20359;-40
2024/02/10 11:32:57;;;;;;;9.02;7.93;;;;;;;11.54;100.00;98660.81;5113237;28;20028;-40